Latest Weather Observations for Tindal

IDD60801

Issued at 4:01 am CST Monday 20 February 2017 (issued every 30 minutes, with the page automatically refreshed every 10 minutes)

About weather observations | Map of weather stations | Latest weather observations for NT | Other Formats
Station Details ID: 014932 Name: TINDAL RAAF Lat: -14.52 Lon: 132.38 Height: 133.6 m
Data from the previous 72 hours. | See also: Recent months at Tindal
Date/Time
CST
Temp
°C
App
Temp
°C
Dew
Point
°C
Rel
Hum
%
Delta-T
°C
Wind Press
QNH
hPa
Press
MSL
hPa
Rain since
9am
mm
Dir  Spd
km/h
Gust
km/h
Spd
kts
Gust
kts
20/04:00am 23.6 27.6 22.8 95 0.5 NW 6 9 3 5 1007.4 1006.5 1.8
20/03:30am 23.7 28.8 22.7 94 0.7 CALM 0 0 0 0 1007.4 1006.5 1.8
20/03:00am 23.8 27.6 22.8 94 0.7 WNW 7 9 4 5 1007.4 1006.5 1.8
20/02:30am 23.9 28.7 22.9 94 0.7 S 2 6 1 3 1007.9 1007.0 1.8
20/02:00am 23.9 27.8 22.9 94 0.7 SSW 7 11 4 6 1008.2 1007.2 1.8
20/01:30am 23.9 29.1 22.9 94 0.7 CALM 0 2 0 1 1008.5 1007.5 1.8
20/01:00am 24.0 29.3 23.0 94 0.7 CALM 0 0 0 0 1008.7 1007.7 1.8
20/12:30am 24.1 29.3 22.9 93 0.8 CALM 0 0 0 0 1008.9 1007.9 1.8
20/12:00am 24.1 29.3 22.9 93 0.8 CALM 0 0 0 0 1009.2 1008.2 1.8
 
Date/Time
CST
Temp
°C
App
Temp
°C
Dew
Point
°C
Rel
Hum
%
Delta-T
°C
Wind Press
QNH
hPa
Press
MSL
hPa
Rain since
9am
mm
Dir  Spd
km/h
Gust
km/h
Spd
kts
Gust
kts
19/11:30pm 24.2 29.5 23.0 93 0.8 CALM 0 0 0 0 1009.4 1008.4 1.8
19/11:00pm 24.3 28.4 22.9 92 0.9 ESE 6 9 3 5 1009.7 1008.7 1.8
19/10:30pm 24.3 29.0 22.7 91 1.1 E 2 9 1 5 1009.8 1008.8 1.8
19/10:00pm 24.5 28.3 22.8 90 1.2 E 7 11 4 6 1009.6 1008.6 1.8
19/09:30pm 24.5 27.1 22.6 89 1.3 E 13 17 7 9 1009.3 1008.3 1.8
19/09:00pm 24.5 27.6 22.8 90 1.2 E 11 17 6 9 1009.1 1008.1 1.8
19/08:30pm 24.8 26.8 23.0 90 1.2 E 17 24 9 13 1008.7 1007.7 1.8
19/08:10pm 24.7 28.6 22.9 90 1.2 E 7 13 4 7 1008.7 1007.7 1.6
19/08:00pm 24.6 26.9 22.7 89 1.3 E 15 22 8 12 1008.3 1007.3 1.6
19/07:53pm 25.1 26.8 22.4 85 1.8 ESE 17 24 9 13 1007.9 1007.0 1.2
19/07:30pm 26.6 27.7 22.4 78 2.8 E 20 30 11 16 1007.7 1006.8 0.2
19/07:00pm 27.3 28.3 22.9 77 3.0 ENE 22 30 12 16 1006.9 1006.0 0.2
19/06:30pm 30.7 34.5 22.8 62 5.4 S 7 11 4 6 1006.4 1005.4 0.2
19/06:00pm 31.3 33.9 22.6 60 6.0 SSW 13 17 7 9 1006.0 1005.0 0.2
19/05:30pm 31.2 32.6 21.9 57 6.3 S 17 22 9 12 1005.5 1004.5 0.2
19/05:00pm 31.5 31.7 21.4 55 6.8 SSW 22 30 12 16 1005.5 1004.5 0.2
19/04:30pm 31.6 32.4 21.7 55 6.7 SSW 20 28 11 15 1005.4 1004.4 0.2
19/04:00pm 31.9 33.9 22.9 59 6.2 SSW 17 20 9 11 1005.0 1004.0 0.2
19/03:30pm 32.3 33.4 22.4 56 6.8 SSW 20 30 11 16 1004.9 1003.9 0.2
19/03:00pm 32.8 34.8 22.3 54 7.2 S 15 24 8 13 1005.2 1004.2 0.2
19/02:30pm 32.6 34.4 21.1 50 7.8 SSW 13 20 7 11 1005.8 1004.8 0.2
19/02:00pm 32.1 34.4 21.3 53 7.3 SSE 11 20 6 11 1006.2 1005.2 0.2
19/01:30pm 31.4 34.9 23.5 63 5.5 WNW 11 15 6 8 1006.8 1005.8 0.2
19/01:00pm 30.8 35.7 22.4 61 5.7 CALM 0 6 0 3 1007.5 1006.6 0.2
19/12:30pm 30.2 34.2 22.1 62 5.5 WSW 4 7 2 4 1008.1 1007.1 0.2
19/12:00pm 29.6 32.9 22.6 66 4.8 S 9 17 5 9 1008.4 1007.4 0.2
19/11:30am 29.4 32.0 22.6 67 4.7 SW 13 17 7 9 1008.8 1007.8 0.2
19/11:00am 28.8 31.6 23.0 71 4.0 W 13 17 7 9 1009.1 1008.1 0.2
19/10:30am 28.1 31.4 23.9 78 2.9 W 13 19 7 10 1009.2 1008.2 0.2
19/10:00am 28.1 31.8 23.9 78 2.9 WNW 11 15 6 8 1009.3 1008.3 0.2
19/09:30am 27.1 31.8 24.0 83 2.1 W 6 9 3 5 1009.4 1008.4 0.0
19/09:00am 26.2 30.3 23.3 84 2.0 SSW 7 11 4 6 1009.4 1008.4 6.2
19/08:30am 25.7 29.5 23.4 87 1.6 SSW 9 13 5 7 1009.1 1008.1 6.2
19/08:00am 24.6 28.7 23.0 91 1.1 SW 6 7 3 4 1008.7 1007.7 6.2
19/07:44am 24.4 29.5 23.4 94 0.7 SW 2 7 1 4 1008.5 1007.5 6.2
19/07:30am 24.1 29.5 23.2 95 0.6 CALM 0 0 0 0 1008.3 1007.3 6.2
19/07:00am 23.9 27.8 23.0 95 0.6 WNW 7 9 4 5 1008.2 1007.2 6.2
19/06:52am 23.8 27.7 23.0 95 0.5 WNW 7 9 4 5 1008.2 1007.2 6.2
19/06:51am 23.8 27.7 23.0 95 0.5 W 7 9 4 5 1008.2 1007.2 6.2
19/06:30am 23.8 27.7 23.0 95 0.5 WNW 7 9 4 5 1008.1 1007.1 6.2
19/06:00am 23.9 27.1 23.0 95 0.6 WNW 11 15 6 8 1007.6 1006.7 6.2
19/05:30am 24.0 26.9 23.1 95 0.6 WNW 13 17 7 9 1007.3 1006.4 6.2
19/05:00am 24.1 27.4 23.2 95 0.6 WNW 11 15 6 8 1007.4 1006.5 6.2
19/04:30am 24.1 27.8 23.2 95 0.6 WNW 9 13 5 7 1007.2 1006.3 6.2
19/04:12am 24.1 27.8 23.2 95 0.6 WNW 9 11 5 6 1007.0 1006.1 6.2
19/04:00am 24.1 27.8 23.2 95 0.6 W 9 13 5 7 1007.2 1006.3 6.2
19/03:30am 24.1 27.0 23.2 95 0.6 WNW 13 17 7 9 1007.6 1006.7 6.2
19/03:00am 24.1 28.1 23.1 94 0.7 WNW 7 11 4 6 1007.6 1006.7 6.2
19/02:30am 24.2 28.8 23.2 94 0.7 W 4 9 2 5 1007.5 1006.6 6.2
19/02:00am 24.3 28.4 23.3 94 0.7 WNW 7 11 4 6 1007.7 1006.8 6.2
19/01:30am 24.4 28.2 23.4 94 0.7 NW 9 13 5 7 1008.4 1007.4 6.2
19/01:00am 24.5 27.6 23.5 94 0.7 NW 13 20 7 11 1008.6 1007.6 6.2
19/12:55am 24.5 28.6 23.3 93 0.8 NW 7 17 4 9 1008.7 1007.7 6.2
19/12:35am 24.6 28.4 23.4 93 0.8 SE 9 15 5 8 1009.7 1008.7 5.8
19/12:30am 24.6 28.7 23.2 92 1.0 SSW 7 13 4 7 1009.8 1008.8 3.8
19/12:00am 24.8 29.2 23.4 92 1.0 N 6 11 3 6 1009.3 1008.3 3.8
 
Date/Time
CST
Temp
°C
App
Temp
°C
Dew
Point
°C
Rel
Hum
%
Delta-T
°C
Wind Press
QNH
hPa
Press
MSL
hPa
Rain since
9am
mm
Dir  Spd
km/h
Gust
km/h
Spd
kts
Gust
kts
18/11:30pm 24.8 29.0 23.2 91 1.1 ENE 6 9 3 5 1009.5 1008.5 3.8
18/11:00pm 24.8 26.8 23.0 90 1.2 ESE 17 26 9 14 1009.5 1008.5 3.8
18/10:30pm 24.0 27.5 22.1 89 1.3 ESE 7 11 4 6 1009.4 1008.4 3.4
18/10:00pm 23.7 25.9 21.8 89 1.3 ESE 13 19 7 10 1009.3 1008.3 3.4
18/09:57pm 23.6 25.2 21.5 88 1.4 ESE 15 20 8 11 1009.3 1008.3 3.4
18/09:39pm 23.5 25.4 21.4 88 1.4 SSE 13 20 7 11 1009.2 1008.2 3.4
18/09:30pm 23.4 24.9 21.3 88 1.4 SE 15 22 8 12 1008.9 1007.9 1.4
18/09:29pm 23.4 24.9 21.3 88 1.4 SE 15 22 8 12 1009.0 1008.0 1.4
18/09:19pm 23.3 22.9 21.0 87 1.5 SE 24 35 13 19 1009.2 1008.2 1.2
18/09:15pm 23.8 22.7 21.1 85 1.8 SSE 28 46 15 25 1009.3 1008.3 0.4
18/09:00pm 25.9 23.4 20.9 74 3.3 SE 35 50 19 27 1009.1 1008.1 0.2
18/08:50pm 26.8 24.2 19.9 66 4.5 SSE 33 69 18 37 1009.0 1008.0 0.2
18/08:45pm 29.4 31.8 21.6 63 5.3 SW 11 50 6 27 1008.9 1007.9 0.2
18/08:30pm 29.8 34.3 24.0 71 4.0 W 7 9 4 5 1007.1 1006.2 0.2
18/08:00pm 30.1 33.8 23.3 67 4.7 WSW 9 13 5 7 1006.0 1005.0 0.2
18/07:30pm 30.6 33.8 23.0 64 5.2 W 11 13 6 7 1006.2 1005.2 0.2
18/07:00pm 31.8 34.1 22.8 59 6.2 WSW 15 20 8 11 1006.3 1005.3 0.2
18/06:30pm 32.8 34.1 22.3 54 7.2 WSW 19 22 10 12 1006.2 1005.2 0.2
18/06:00pm 33.5 34.8 22.3 52 7.7 SW 19 30 10 16 1005.7 1004.7 0.2
18/05:30pm 33.7 35.0 23.4 55 7.2 WSW 22 30 12 16 1005.2 1004.2 0.2
18/05:00pm 34.2 35.8 23.2 52 7.7 WSW 20 28 11 15 1005.4 1004.4 0.2
18/04:30pm 34.1 36.2 24.1 56 7.1 SW 20 32 11 17 1005.5 1004.5 0.2
18/04:00pm 34.4 36.7 23.4 52 7.7 WSW 17 28 9 15 1006.0 1005.0 0.2
18/03:30pm 34.0 37.0 24.6 58 6.7 WNW 17 24 9 13 1006.2 1005.2 0.2
18/03:00pm 33.5 36.4 23.8 57 6.8 WNW 15 22 8 12 1006.6 1005.6 0.2
18/02:30pm 32.6 35.1 23.8 59 6.2 W 17 26 9 14 1007.3 1006.4 0.2
18/02:00pm 33.3 36.2 24.5 60 6.2 W 17 26 9 14 1007.8 1006.9 0.2
18/01:30pm 32.4 34.5 23.1 58 6.5 W 17 24 9 13 1008.5 1007.5 0.2
18/01:00pm 32.1 33.5 22.8 58 6.4 WSW 20 28 11 15 1008.8 1007.8 0.2
18/12:30pm 31.5 34.4 23.1 61 5.8 W 13 19 7 10 1009.2 1008.2 0.2
18/12:00pm 30.7 34.3 23.1 64 5.3 SW 9 19 5 10 1009.5 1008.5 0.2
18/11:30am 29.4 32.6 23.1 69 4.3 WSW 11 20 6 11 1009.7 1008.7 0.2
18/11:00am 28.5 32.4 23.0 72 3.8 WNW 7 13 4 7 1009.8 1008.8 0.2
18/10:30am 27.5 31.5 22.7 75 3.3 W 6 11 3 6 1010.1 1009.1 0.2
18/10:00am 26.8 29.8 22.6 78 2.9 NW 11 15 6 8 1010.4 1009.4 0.0
18/09:30am 26.5 29.7 23.0 81 2.4 NW 11 19 6 10 1010.3 1009.3 0.0
18/09:18am 25.7 29.0 23.2 86 1.7 NW 11 15 6 8 1010.4 1009.4 0.0
18/09:00am 25.3 28.5 23.0 87 1.6 NW 11 15 6 8 1010.5 1009.5 21.2
18/08:30am 24.6 28.3 23.2 92 1.0 NNW 9 15 5 8 1010.4 1009.4 21.2
18/08:00am 24.1 27.7 23.1 94 0.7 WNW 9 11 5 6 1010.4 1009.4 21.2
18/07:49am 24.0 27.6 23.0 94 0.7 WNW 9 13 5 7 1010.0 1009.0 21.2
18/07:30am 23.8 27.4 23.0 95 0.5 NNW 9 13 5 7 1009.9 1008.9 21.2
18/07:11am 23.6 27.1 22.8 95 0.5 NW 9 13 5 7 1009.7 1008.7 21.2
18/07:00am 23.5 26.9 22.7 95 0.5 NNW 9 11 5 6 1009.5 1008.5 21.2
18/06:30am 23.5 26.5 22.7 95 0.5 NW 11 13 6 7 1009.5 1008.5 21.2
18/06:00am 23.5 27.4 22.5 94 0.7 NW 6 9 3 5 1009.4 1008.4 21.2
18/05:30am 23.4 27.0 22.4 94 0.7 WNW 7 11 4 6 1009.2 1008.2 21.2
18/05:00am 23.3 26.9 22.1 93 0.8 W 6 9 3 5 1009.1 1008.1 21.2
18/04:30am 23.4 26.8 22.0 92 0.9 NW 7 11 4 6 1008.9 1007.9 21.2
18/04:00am 23.5 28.2 21.9 91 1.1 CALM 0 6 0 3 1008.6 1007.6 21.2
18/03:30am 23.5 26.1 21.9 91 1.1 NW 11 15 6 8 1008.4 1007.4 21.2
18/03:00am 23.6 26.6 22.0 91 1.1 NNW 9 11 5 6 1008.3 1007.3 21.2
18/02:30am 23.7 28.2 22.3 92 0.9 NW 2 7 1 4 1008.1 1007.1 21.2
18/02:00am 23.7 27.8 21.6 88 1.4 S 2 7 1 4 1008.1 1007.1 21.2
18/01:30am 23.8 27.7 21.9 89 1.3 WNW 4 9 2 5 1008.6 1007.6 21.2
18/01:00am 23.8 27.0 22.4 92 0.9 WNW 9 13 5 7 1009.4 1008.4 21.2
18/12:30am 23.7 25.5 22.5 93 0.8 NW 17 22 9 12 1009.9 1008.9 21.2
18/12:00am 23.9 26.3 22.9 94 0.7 NW 15 19 8 10 1010.6 1009.6 21.0
 
Date/Time
CST
Temp
°C
App
Temp
°C
Dew
Point
°C
Rel
Hum
%
Delta-T
°C
Wind Press
QNH
hPa
Press
MSL
hPa
Rain since
9am
mm
Dir  Spd
km/h
Gust
km/h
Spd
kts
Gust
kts
17/11:30pm 23.8 25.4 22.2 91 1.1 WNW 17 22 9 12 1011.7 1010.7 20.8
17/11:22pm 23.9 25.9 22.3 91 1.1 WSW 15 26 8 14 1011.9 1010.9 20.4
17/11:00pm 24.1 24.6 22.7 92 0.9 SSE 24 35 13 19 1012.8 1011.8 19.4
17/10:53pm 24.5 25.1 22.8 90 1.2 SE 24 35 13 19 1013.3 1012.3 16.2
17/10:30pm 25.3 28.9 23.0 87 1.6 W 9 13 5 7 1011.9 1010.9 13.8
17/10:00pm 25.1 29.4 23.7 92 1.0 WNW 7 11 4 6 1011.2 1010.2 13.8
17/09:30pm 24.9 28.7 23.5 92 1.0 WNW 9 13 5 7 1010.3 1009.3 13.8
17/09:00pm 24.8 28.9 23.2 91 1.1 WNW 7 11 4 6 1009.7 1008.7 13.8
17/08:30pm 24.6 28.2 23.0 91 1.1 WNW 9 13 5 7 1009.3 1008.3 13.8
17/08:00pm 24.4 27.0 22.7 90 1.1 WNW 13 17 7 9 1009.5 1008.5 13.8
17/07:30pm 24.0 25.7 21.7 87 1.5 NNW 15 20 8 11 1008.7 1007.7 13.8
17/07:00pm 24.6 26.2 22.1 86 1.7 NW 17 24 9 13 1008.8 1007.8 13.8
17/06:30pm 24.8 27.3 21.1 80 2.5 NNW 9 24 5 13 1008.3 1007.3 13.8
17/06:20pm 25.0 25.2 21.3 80 2.5 WNW 22 39 12 21 1008.1 1007.1 13.8
17/06:19pm 25.3 24.9 21.0 77 2.8 WNW 24 39 13 21 1007.9 1007.0 13.8
17/06:09pm 24.0 25.0 22.1 89 1.3 WNW 20 35 11 19 1008.3 1007.3 13.6
17/06:00pm 24.0 24.6 22.1 89 1.3 WSW 22 35 12 19 1008.4 1007.4 12.6
17/05:50pm 25.1 25.6 22.6 86 1.7 SSE 24 35 13 19 1008.4 1007.4 3.0
17/05:43pm 27.2 26.1 22.4 75 3.3 S 32 50 17 27 1007.2 1006.3 0.2
17/05:34pm 29.9 31.2 21.6 61 5.6 WSW 17 44 9 24 1006.9 1006.0 0.2
17/05:30pm 34.3 38.4 23.9 54 7.3 WNW 9 15 5 8 1006.3 1005.3 0.2
17/05:00pm 35.2 38.9 22.5 47 8.8 WNW 7 13 4 7 1005.6 1004.6 0.2
17/04:30pm 35.1 39.1 23.1 49 8.4 NW 7 15 4 8 1006.0 1005.0 0.2
17/04:00pm 35.4 40.5 24.7 54 7.6 WSW 6 13 3 7 1006.6 1005.6 0.2
17/03:30pm 34.7 38.1 22.7 49 8.3 W 9 15 5 8 1007.4 1006.5 0.2
17/03:16pm 34.2 36.6 22.9 51 7.8 SW 15 22 8 12 1007.6 1006.7 0.2
17/03:00pm 34.2 36.8 22.6 50 8.0 WSW 13 22 7 12 1007.8 1006.9 0.2
17/02:30pm 34.4 37.8 24.6 56 7.0 W 15 20 8 11 1008.4 1007.4 0.2
17/02:00pm 33.4 36.4 23.4 55 7.0 WNW 13 26 7 14 1008.8 1007.8 0.2
17/01:30pm 33.4 36.6 23.7 56 6.8 WNW 13 20 7 11 1009.3 1008.3 0.2
17/01:00pm 33.1 36.8 24.6 61 6.0 WNW 13 24 7 13 1009.9 1008.9 0.2
17/12:30pm 32.5 34.7 24.0 61 6.0 W 19 28 10 15 1010.4 1009.4 0.2
17/12:00pm 31.9 34.6 24.2 63 5.4 WNW 17 22 9 12 1010.7 1009.7 0.2
17/11:30am 31.3 34.1 23.7 64 5.3 WNW 15 24 8 13 1011.0 1010.0 0.2
17/11:00am 30.9 34.5 24.3 68 4.6 WSW 13 22 7 12 1011.2 1010.2 0.2
17/10:30am 29.3 32.4 23.5 71 4.0 W 13 20 7 11 1011.4 1010.4 0.2
17/10:00am 28.9 31.4 23.8 74 3.5 W 17 24 9 13 1011.5 1010.5 0.2
17/09:46am 28.7 31.6 23.8 75 3.4 W 15 20 8 11 1011.5 1010.5 0.0
17/09:30am 28.0 30.8 23.6 77 3.0 W 15 24 8 13 1011.4 1010.4 0.0
17/09:00am 27.2 30.1 23.9 82 2.3 WNW 15 19 8 10 1011.3 1010.3 75.4
17/08:59am 27.1 29.9 23.6 81 2.4 WNW 15 19 8 10 1011.3 1010.3 75.4
17/08:37am 26.5 29.3 23.6 84 2.0 WNW 15 20 8 11 1011.2 1010.2 75.4
17/08:30am 26.4 29.6 23.7 85 1.9 WNW 13 19 7 10 1011.1 1010.1 75.4
17/08:00am 25.3 28.9 23.0 87 1.6 NW 9 13 5 7 1010.7 1009.7 75.4
17/07:30am 24.6 28.5 23.0 91 1.1 NNW 7 9 4 5 1010.3 1009.3 75.4
17/07:00am 24.0 29.3 23.0 94 0.7 CALM 0 0 0 0 1010.0 1009.0 75.4
17/06:30am 23.7 28.8 22.7 94 0.7 CALM 0 0 0 0 1009.4 1008.4 75.4
17/06:00am 23.7 28.8 22.7 94 0.7 CALM 0 0 0 0 1009.0 1008.0 75.4
17/05:30am 23.9 27.9 22.7 93 0.8 N 6 7 3 4 1008.7 1007.7 75.4
17/05:00am 23.8 28.9 22.6 93 0.8 CALM 0 0 0 0 1008.6 1007.6 75.4
17/04:30am 23.9 28.9 22.5 92 0.9 CALM 0 0 0 0 1008.5 1007.5 75.2

Other Formats:

Comma delimited format used in spreadsheet applications
http://www.bom.gov.au/fwo/IDD60801/IDD60801.94131.axf

JavaScript Object Notation format (JSON) in row-major order
http://www.bom.gov.au/fwo/IDD60801/IDD60801.94131.json